createdAt,value
2018-06-03T00:00:19.185Z,101096
2018-06-03T00:02:47.313Z,101099
2018-06-03T00:05:15.697Z,101096
2018-06-03T00:07:43.816Z,101100
2018-06-03T00:10:12.026Z,101100
2018-06-03T00:12:40.205Z,101099
2018-06-03T00:15:08.367Z,101102
2018-06-03T00:17:36.447Z,101107
2018-06-03T00:20:04.549Z,101099
2018-06-03T00:22:33.012Z,101102
2018-06-03T00:25:01.139Z,101092
2018-06-03T00:27:29.223Z,101096
2018-06-03T00:29:57.355Z,101092
2018-06-03T00:32:25.485Z,101106
2018-06-03T00:34:53.650Z,101089
2018-06-03T00:37:21.769Z,101090
2018-06-03T00:39:49.863Z,101093
2018-06-03T00:42:18.008Z,101091
2018-06-03T00:44:46.128Z,101092
2018-06-03T00:47:14.240Z,101093
2018-06-03T00:49:42.347Z,101088
2018-06-03T00:52:10.508Z,101092
2018-06-03T00:54:38.652Z,101102
2018-06-03T00:57:09.592Z,101092
2018-06-03T00:59:37.732Z,101102
2018-06-03T01:02:05.896Z,101092
2018-06-03T01:04:34.006Z,101093
2018-06-03T01:07:02.120Z,101092
2018-06-03T01:09:30.215Z,101095
2018-06-03T01:11:58.363Z,101101
2018-06-03T01:14:26.464Z,101095
2018-06-03T01:16:54.566Z,101088
2018-06-03T01:19:22.866Z,101088
2018-06-03T01:21:51.070Z,101096
2018-06-03T01:24:19.188Z,101079
2018-06-03T01:26:47.303Z,101087
2018-06-03T01:29:15.483Z,101091
2018-06-03T01:31:43.622Z,101084
2018-06-03T01:34:11.716Z,101088
2018-06-03T01:36:39.863Z,101091
2018-06-03T01:39:07.974Z,101083
2018-06-03T01:41:36.130Z,101085
2018-06-03T01:44:04.251Z,101082
2018-06-03T01:46:32.399Z,101085
2018-06-03T01:49:00.548Z,101077
2018-06-03T01:51:28.663Z,101081
2018-06-03T01:53:56.759Z,101081
2018-06-03T01:56:24.873Z,101078
2018-06-03T01:58:52.956Z,101077
2018-06-03T02:01:21.103Z,101078
2018-06-03T02:03:49.233Z,101071
2018-06-03T02:06:17.372Z,101070
2018-06-03T02:08:45.637Z,101070
2018-06-03T02:11:13.732Z,101063
2018-06-03T02:13:41.873Z,101070
2018-06-03T02:16:09.934Z,101071
2018-06-03T02:18:38.042Z,101075
2018-06-03T02:21:06.191Z,101071
2018-06-03T02:23:34.340Z,101074
2018-06-03T02:26:02.418Z,101082
2018-06-03T02:28:30.511Z,101077
2018-06-03T02:30:58.622Z,101080
2018-06-03T02:33:26.688Z,101066
2018-06-03T02:35:54.758Z,101073
2018-06-03T02:38:22.844Z,101070
2018-06-03T02:40:50.908Z,101066
2018-06-03T02:43:19.046Z,101068
2018-06-03T02:45:47.125Z,101076
2018-06-03T02:48:15.195Z,101071
2018-06-03T02:50:43.277Z,101070
2018-06-03T02:53:11.494Z,101078
2018-06-03T02:55:39.564Z,101082
2018-06-03T02:58:07.638Z,101079
2018-06-03T03:00:35.911Z,101072
2018-06-03T03:03:04.104Z,101071
2018-06-03T03:05:32.164Z,101070
2018-06-03T03:08:00.237Z,101077
2018-06-03T03:10:28.321Z,101069
2018-06-03T03:12:56.385Z,101076
2018-06-03T03:15:24.561Z,101081
2018-06-03T03:17:52.701Z,101080
2018-06-03T03:20:20.874Z,101086
2018-06-03T03:22:48.950Z,101080
2018-06-03T03:25:17.175Z,101087
2018-06-03T03:27:45.350Z,101082
2018-06-03T03:30:13.539Z,101081
2018-06-03T03:32:41.720Z,101083
2018-06-03T03:35:09.833Z,101086
2018-06-03T03:37:38.203Z,101081
2018-06-03T03:40:06.451Z,101085
2018-06-03T03:42:34.757Z,101085
2018-06-03T03:45:03.092Z,101083
2018-06-03T03:47:31.435Z,101075
2018-06-03T03:49:59.756Z,101085
2018-06-03T03:52:27.960Z,101087
2018-06-03T03:54:56.163Z,101085
2018-06-03T03:57:24.432Z,101087
2018-06-03T03:59:52.829Z,101088
2018-06-03T04:02:20.979Z,101096
2018-06-03T04:04:49.139Z,101103
2018-06-03T04:08:07.698Z,101088.00
2018-06-03T04:10:37.465Z,101100.00
2018-06-03T04:13:06.921Z,101084.00
2018-06-03T04:15:36.583Z,101084.00
2018-06-03T04:18:06.211Z,101093.00
2018-06-03T04:20:35.695Z,101083.00
2018-06-03T04:23:04.997Z,101091.00
2018-06-03T04:25:34.422Z,101094.00
2018-06-03T04:28:03.899Z,101102.00
2018-06-03T04:30:33.418Z,101088.00
2018-06-03T04:33:03.228Z,101087.00
2018-06-03T04:35:32.512Z,101096.00
2018-06-03T04:38:02.565Z,101096.00
2018-06-03T04:40:32.350Z,101093.00
2018-06-03T04:43:01.892Z,101094.00
2018-06-03T04:45:31.330Z,101100.00
2018-06-03T04:48:01.059Z,101088.00
2018-06-03T04:50:30.689Z,101093.00
2018-06-03T04:53:00.140Z,101090.00
2018-06-03T04:55:29.963Z,101090.00
2018-06-03T04:58:00.497Z,101093.00
2018-06-03T05:00:30.107Z,101087.00
2018-06-03T05:02:59.972Z,101087.00
2018-06-03T05:05:29.907Z,101092.00
2018-06-03T05:07:59.699Z,101100.00
2018-06-03T05:10:29.219Z,101089.00
2018-06-03T05:12:58.798Z,101085.00
2018-06-03T05:15:28.392Z,101104.00
2018-06-03T05:17:57.985Z,101099.00
2018-06-03T05:20:27.723Z,101093.00
2018-06-03T05:22:58.160Z,101099.00
2018-06-03T05:25:27.939Z,101105.00
2018-06-03T05:27:57.728Z,101095.00
2018-06-03T05:30:27.597Z,101102.00
2018-06-03T05:32:57.619Z,101104.00
2018-06-03T05:35:27.538Z,101105.00
2018-06-03T05:37:57.755Z,101103.00
2018-06-03T05:40:27.780Z,101090.00
2018-06-03T05:42:57.355Z,101096.00
2018-06-03T05:45:27.104Z,101107.00
2018-06-03T05:47:57.028Z,101099.00
2018-06-03T05:50:26.979Z,101108.00
2018-06-03T05:52:56.883Z,101107.00
2018-06-03T05:55:26.456Z,101107.00
2018-06-03T05:57:55.923Z,101101.00
2018-06-03T06:00:25.834Z,101110.00
2018-06-03T06:02:55.338Z,101102.00
2018-06-03T06:05:25.051Z,101105.00
2018-06-03T06:07:54.862Z,101115.00
2018-06-03T06:10:24.639Z,101108.00
2018-06-03T06:12:54.551Z,101108.00
2018-06-03T06:15:24.199Z,101112.00
2018-06-03T06:17:53.760Z,101111.00
2018-06-03T06:20:23.405Z,101112.00
2018-06-03T06:22:52.900Z,101114.00
2018-06-03T06:25:22.604Z,101112.00
2018-06-03T06:27:51.977Z,101114.00
2018-06-03T06:30:21.697Z,101107.00
2018-06-03T06:32:51.526Z,101121.00
2018-06-03T06:35:21.349Z,101109.00
2018-06-03T06:37:50.973Z,101111.00
2018-06-03T06:40:20.474Z,101116.00
2018-06-03T06:42:50.311Z,101121.00
2018-06-03T06:45:19.969Z,101130.00
2018-06-03T06:47:49.560Z,101124.00
2018-06-03T06:50:19.504Z,101122.00
2018-06-03T06:52:49.459Z,101118.00
2018-06-03T06:55:19.008Z,101124.00
2018-06-03T06:57:48.725Z,101122.00
2018-06-03T07:00:19.034Z,101123.00
2018-06-03T07:02:48.615Z,101125.00
2018-06-03T07:05:18.483Z,101127.00
2018-06-03T07:07:47.873Z,101128.00
2018-06-03T07:10:17.528Z,101133.00
2018-06-03T07:12:47.542Z,101130.00
2018-06-03T07:15:17.552Z,101120.00
2018-06-03T07:17:47.226Z,101123.00
2018-06-03T07:20:17.308Z,101125.00
2018-06-03T07:22:47.075Z,101134.00
2018-06-03T07:25:16.837Z,101137.00
2018-06-03T07:27:46.728Z,101135.00
2018-06-03T07:30:16.283Z,101130.00
2018-06-03T07:32:45.683Z,101133.00
2018-06-03T07:35:15.173Z,101149.00
2018-06-03T07:37:45.023Z,101147.00
2018-06-03T07:40:15.070Z,101139.00
2018-06-03T07:42:44.681Z,101132.00
2018-06-03T07:45:14.375Z,101125.00
2018-06-03T07:47:44.100Z,101133.00
2018-06-03T07:50:13.966Z,101150.00
2018-06-03T07:52:44.397Z,101136.00
2018-06-03T07:55:14.076Z,101136.00
2018-06-03T07:57:43.549Z,101146.00
2018-06-03T08:00:13.585Z,101139.00
2018-06-03T08:02:43.288Z,101143.00
2018-06-03T08:05:13.061Z,101146.00
2018-06-03T08:07:42.673Z,101131.00
2018-06-03T08:10:12.215Z,101143.00
2018-06-03T08:12:41.810Z,101153.00
2018-06-03T08:15:11.008Z,101143.00
2018-06-03T08:17:40.176Z,101147.00
2018-06-03T08:20:09.653Z,101142.00
2018-06-03T08:22:39.724Z,101145.00
2018-06-03T08:25:09.216Z,101143.00
2018-06-03T08:27:38.781Z,101144.00
2018-06-03T08:30:09.166Z,101133.00
2018-06-03T08:32:39.043Z,101128.00
2018-06-03T08:35:08.805Z,101126.00
2018-06-03T08:37:43.430Z,101132.00
2018-06-03T08:40:13.104Z,101132.00
2018-06-03T08:42:42.834Z,101142.00
2018-06-03T08:45:12.774Z,101132.00
2018-06-03T08:47:42.661Z,101133.00
2018-06-03T08:50:13.030Z,101142.00
2018-06-03T08:52:42.750Z,101141.00
2018-06-03T08:55:12.585Z,101144.00
2018-06-03T08:57:43.469Z,101147.00
2018-06-03T09:00:13.166Z,101142.00
2018-06-03T09:02:42.806Z,101156.00
2018-06-03T09:05:12.703Z,101148.00
2018-06-03T09:07:42.160Z,101147.00
2018-06-03T09:10:12.033Z,101138.00
2018-06-03T09:12:41.578Z,101139.00
2018-06-03T09:15:17.997Z,101142.00
2018-06-03T09:17:49.629Z,101142.00
2018-06-03T09:20:19.500Z,101145.00
2018-06-03T09:22:49.305Z,101148.00
2018-06-03T09:25:19.064Z,101150.00
2018-06-03T09:27:48.857Z,101139.00
2018-06-03T09:30:18.804Z,101132.00
2018-06-03T09:32:48.660Z,101128.00
2018-06-03T09:35:17.979Z,101124.00
2018-06-03T09:37:47.623Z,101130.00
2018-06-03T09:40:17.039Z,101130.00
2018-06-03T09:42:46.789Z,101131.00
2018-06-03T09:45:16.456Z,101128.00
2018-06-03T09:47:46.179Z,101129.00
2018-06-03T09:50:15.677Z,101138.00
2018-06-03T09:52:45.361Z,101134.00
2018-06-03T09:55:14.964Z,101127.00
2018-06-03T09:57:44.678Z,101137.00
2018-06-03T10:00:21.471Z,101147.00
2018-06-03T10:02:51.187Z,101138.00
2018-06-03T10:05:20.684Z,101127.00
2018-06-03T10:07:50.242Z,101123.00
2018-06-03T10:10:20.144Z,101125.00
2018-06-03T10:12:50.138Z,101125.00
2018-06-03T10:15:19.991Z,101122.00
2018-06-03T10:17:49.687Z,101117.00
2018-06-03T10:20:19.423Z,101122.00
2018-06-03T10:22:48.892Z,101121.00
2018-06-03T10:25:18.450Z,101119.00
2018-06-03T10:27:47.843Z,101125.00
2018-06-03T10:30:17.739Z,101126.00
2018-06-03T10:32:47.562Z,101126.00
2018-06-03T10:35:17.547Z,101130.00
2018-06-03T10:37:47.515Z,101121.00
2018-06-03T10:40:17.847Z,101124.00
2018-06-03T10:42:47.483Z,101117.00
2018-06-03T10:45:17.235Z,101125.00
2018-06-03T10:47:47.136Z,101119.00
2018-06-03T10:50:16.761Z,101129.00
2018-06-03T10:52:46.496Z,101121.00
2018-06-03T10:55:16.127Z,101107.00
2018-06-03T10:57:50.147Z,101109.00
2018-06-03T11:00:20.162Z,101121.00
2018-06-03T11:02:49.919Z,101115.00
2018-06-03T11:05:19.721Z,101108.00
2018-06-03T11:07:49.104Z,101109.00
2018-06-03T11:10:18.956Z,101116.00
2018-06-03T11:12:48.823Z,101113.00
2018-06-03T11:15:18.529Z,101107.00
2018-06-03T11:17:48.190Z,101111.00
2018-06-03T11:20:19.217Z,101099.00
2018-06-03T11:22:48.960Z,101106.00
2018-06-03T11:25:18.664Z,101088.00
2018-06-03T11:27:48.419Z,101095.00
2018-06-03T11:30:17.993Z,101093.00
2018-06-03T11:32:47.890Z,101095.00
2018-06-03T11:35:17.494Z,101093.00
2018-06-03T11:37:47.166Z,101111.00
2018-06-03T11:40:16.778Z,101104.00
2018-06-03T11:42:46.365Z,101108.00
2018-06-03T11:45:16.155Z,101100.00
2018-06-03T11:47:45.780Z,101110.00
2018-06-03T11:50:15.240Z,101105.00
2018-06-03T11:52:45.118Z,101089.00
2018-06-03T11:55:14.628Z,101095.00
2018-06-03T11:58:52.750Z,101093.00
2018-06-03T12:01:22.721Z,101100.00
2018-06-03T12:03:52.615Z,101093.00
2018-06-03T12:06:22.231Z,101106.00
2018-06-03T12:08:52.192Z,101090.00
2018-06-03T12:11:21.947Z,101095.00
2018-06-03T12:13:52.091Z,101103.00
2018-06-03T12:16:21.590Z,101101.00
2018-06-03T12:18:51.110Z,101091.00
2018-06-03T12:21:20.537Z,101092.00
2018-06-03T12:23:50.102Z,101089.00
2018-06-03T12:26:19.750Z,101095.00
2018-06-03T12:28:49.196Z,101088.00
2018-06-03T12:31:18.708Z,101084.00
2018-06-03T12:33:47.889Z,101094.00
2018-06-03T12:36:17.730Z,101090.00
2018-06-03T12:38:47.451Z,101086.00
2018-06-03T12:41:17.290Z,101089.00
2018-06-03T12:43:46.819Z,101083.00
2018-06-03T12:46:16.575Z,101082.00
2018-06-03T12:48:45.918Z,101082.00
2018-06-03T12:51:15.246Z,101073.00
2018-06-03T12:53:45.116Z,101075.00
2018-06-03T12:56:14.661Z,101080.00
2018-06-03T12:58:44.778Z,101069.00
2018-06-03T13:01:14.820Z,101071.00
2018-06-03T13:03:44.804Z,101065.00
2018-06-03T13:06:14.664Z,101075.00
2018-06-03T13:08:44.231Z,101074.00
2018-06-03T13:11:13.678Z,101070.00
2018-06-03T13:13:43.071Z,101075.00
2018-06-03T13:16:13.042Z,101074.00
2018-06-03T13:18:42.698Z,101065.00
2018-06-03T13:21:12.425Z,101072.00
2018-06-03T13:23:42.253Z,101073.00
2018-06-03T13:26:12.192Z,101063.00
2018-06-03T13:28:41.746Z,101063.00
2018-06-03T13:31:11.650Z,101056.00
2018-06-03T13:33:41.199Z,101054.00
2018-06-03T13:36:10.843Z,101061.00
2018-06-03T13:38:40.460Z,101052.00
2018-06-03T13:41:10.283Z,101039.00
2018-06-03T13:43:40.294Z,101049.00
2018-06-03T13:46:10.239Z,101044.00
2018-06-03T13:48:40.235Z,101049.00
2018-06-03T13:51:10.319Z,101036.00
2018-06-03T13:53:40.338Z,101033.00
2018-06-03T13:56:10.431Z,101037.00
2018-06-03T13:58:40.450Z,101035.00
2018-06-03T14:01:10.526Z,101037.00
2018-06-03T14:03:40.494Z,101031.00
2018-06-03T14:06:10.391Z,101029.00
2018-06-03T14:08:40.394Z,101025.00
2018-06-03T14:11:10.952Z,101032.00
2018-06-03T14:13:40.951Z,101021.00
2018-06-03T14:16:10.308Z,101027.00
2018-06-03T14:18:40.231Z,101013.00
2018-06-03T14:21:10.380Z,101015.00
2018-06-03T14:23:40.051Z,101011.00
2018-06-03T14:26:10.029Z,101015.00
2018-06-03T14:28:40.071Z,101009.00
2018-06-03T14:31:09.811Z,101009.00
2018-06-03T14:33:39.504Z,101012.00
2018-06-03T14:36:09.956Z,101011.00
2018-06-03T14:38:40.192Z,101010.00
2018-06-03T14:41:09.817Z,101005.00
2018-06-03T14:43:39.719Z,101000.00
2018-06-03T14:46:10.314Z,101011.00
2018-06-03T14:48:40.351Z,101005.00
2018-06-03T14:51:10.511Z,100996.00
2018-06-03T14:53:40.930Z,101002.00
2018-06-03T14:56:10.578Z,100998.00
2018-06-03T14:58:40.604Z,100986.00
2018-06-03T15:01:10.445Z,100994.00
2018-06-03T15:03:40.152Z,100986.00
2018-06-03T15:06:09.866Z,100988.00
2018-06-03T15:08:39.468Z,100982.00
2018-06-03T15:11:09.230Z,100986.00
2018-06-03T15:13:38.750Z,100981.00
2018-06-03T15:16:08.176Z,100978.00
2018-06-03T15:18:37.824Z,100985.00
2018-06-03T15:21:07.711Z,100986.00
2018-06-03T15:23:37.928Z,100979.00
2018-06-03T15:26:07.794Z,100970.00
2018-06-03T15:28:37.810Z,100970.00
2018-06-03T15:31:07.827Z,100967.00
2018-06-03T15:33:37.534Z,100968.00
2018-06-03T15:36:07.805Z,100970.00
2018-06-03T15:38:37.578Z,100972.00
2018-06-03T15:41:07.440Z,100959.00
2018-06-03T15:43:37.237Z,100964.00
2018-06-03T15:46:07.239Z,100963.00
2018-06-03T15:48:38.004Z,100962.00
2018-06-03T15:51:07.861Z,100953.00
2018-06-03T15:53:38.464Z,100953.00
2018-06-03T15:56:08.715Z,100960.00
2018-06-03T15:58:38.858Z,100954.00
2018-06-03T16:01:09.272Z,100950.00
2018-06-03T16:03:38.878Z,100945.00
2018-06-03T16:06:08.480Z,100954.00
2018-06-03T16:08:38.269Z,100950.00
2018-06-03T16:11:07.903Z,100957.00
2018-06-03T16:13:37.559Z,100943.00
2018-06-03T16:16:07.720Z,100934.00
2018-06-03T16:18:37.467Z,100937.00
2018-06-03T16:21:08.409Z,100943.00
2018-06-03T16:23:38.374Z,100936.00
2018-06-03T16:26:08.099Z,100929.00
2018-06-03T16:28:37.960Z,100936.00
2018-06-03T16:31:07.835Z,100928.00
2018-06-03T16:33:37.443Z,100933.00
2018-06-03T16:36:07.112Z,100917.00
2018-06-03T16:38:37.219Z,100923.00
2018-06-03T16:41:06.783Z,100921.00
2018-06-03T16:43:36.292Z,100924.00
2018-06-03T16:46:05.769Z,100917.00
2018-06-03T16:48:35.946Z,100920.00
2018-06-03T16:51:05.491Z,100912.00
2018-06-03T16:53:35.215Z,100917.00
2018-06-03T16:56:05.764Z,100915.00
2018-06-03T16:58:35.635Z,100914.00
2018-06-03T17:01:05.552Z,100915.00
2018-06-03T17:03:35.361Z,100920.00
2018-06-03T17:06:05.237Z,100910.00
2018-06-03T17:08:35.879Z,100901.00
2018-06-03T17:11:06.218Z,100905.00
2018-06-03T17:13:35.931Z,100894.00
2018-06-03T17:16:05.537Z,100899.00
2018-06-03T17:18:36.316Z,100900.00
2018-06-03T17:21:06.321Z,100904.00
2018-06-03T17:23:35.893Z,100899.00
2018-06-03T17:26:06.016Z,100900.00
2018-06-03T17:28:37.132Z,100891.00
2018-06-03T17:31:07.420Z,100885.00
2018-06-03T17:33:37.287Z,100883.00
2018-06-03T17:36:07.120Z,100885.00
2018-06-03T17:38:37.726Z,100882.00
2018-06-03T17:41:08.138Z,100881.00
2018-06-03T17:43:38.663Z,100874.00
2018-06-03T17:46:09.033Z,100880.00
2018-06-03T17:48:38.594Z,100870.00
2018-06-03T17:51:08.543Z,100865.00
2018-06-03T17:53:39.490Z,100865.00
2018-06-03T17:56:09.703Z,100858.00
2018-06-03T17:58:41.901Z,100860.00
2018-06-03T18:01:12.568Z,100859.00
2018-06-03T18:03:43.100Z,100866.00
2018-06-03T18:06:14.422Z,100856.00
2018-06-03T18:08:45.672Z,100855.00
2018-06-03T18:11:16.196Z,100850.00
2018-06-03T18:13:46.339Z,100848.00
2018-06-03T18:16:16.613Z,100848.00
2018-06-03T18:18:46.590Z,100848.00
2018-06-03T18:21:17.062Z,100848.00
2018-06-03T18:23:47.786Z,100855.00
2018-06-03T18:26:18.415Z,100859.00
2018-06-03T18:28:48.298Z,100860.00
2018-06-03T18:31:18.250Z,100858.00
2018-06-03T18:33:48.485Z,100855.00
2018-06-03T18:36:18.157Z,100856.00
2018-06-03T18:38:50.281Z,100849.00
2018-06-03T18:41:21.076Z,100847.00
2018-06-03T18:43:51.250Z,100837.00
2018-06-03T18:46:21.318Z,100851.00
2018-06-03T18:48:51.300Z,100848.00
2018-06-03T18:51:21.685Z,100848.00
2018-06-03T18:53:51.044Z,100845.00
2018-06-03T18:56:20.897Z,100850.00
2018-06-03T18:58:51.210Z,100850.00
2018-06-03T19:01:21.605Z,100847.00
2018-06-03T19:03:51.156Z,100847.00
2018-06-03T19:06:20.930Z,100859.00
2018-06-03T19:08:50.483Z,100854.00
2018-06-03T19:11:20.165Z,100856.00
2018-06-03T19:13:50.041Z,100853.00
2018-06-03T19:16:19.462Z,100860.00
2018-06-03T19:18:49.138Z,100854.00
2018-06-03T19:21:19.330Z,100860.00
2018-06-03T19:23:49.050Z,100857.00
2018-06-03T19:26:18.489Z,100851.00
2018-06-03T19:28:47.670Z,100861.00
2018-06-03T19:31:17.077Z,100850.00
2018-06-03T19:33:47.829Z,100863.00
2018-06-03T19:36:17.149Z,100859.00
2018-06-03T19:38:46.232Z,100853.00
2018-06-03T19:41:15.501Z,100858.00
2018-06-03T19:43:44.768Z,100858.00
2018-06-03T19:46:14.179Z,100859.00
2018-06-03T19:48:43.324Z,100859.00
2018-06-03T19:51:12.511Z,100859.00
2018-06-03T19:53:42.000Z,100858.00
2018-06-03T19:56:11.166Z,100857.00
2018-06-03T19:58:40.628Z,100855.00
2018-06-03T20:01:09.654Z,100854.00
2018-06-03T20:03:38.815Z,100859.00
2018-06-03T20:06:07.999Z,100863.00
2018-06-03T20:08:37.265Z,100859.00
2018-06-03T20:11:06.334Z,100864.00
2018-06-03T20:13:35.609Z,100859.00
2018-06-03T20:16:05.144Z,100854.00
2018-06-03T20:18:34.578Z,100853.00
2018-06-03T20:21:03.875Z,100866.00
2018-06-03T20:23:33.282Z,100859.00
2018-06-03T20:26:02.588Z,100854.00
2018-06-03T20:28:31.836Z,100866.00
2018-06-03T20:31:01.061Z,100848.00
2018-06-03T20:33:30.525Z,100854.00
2018-06-03T20:36:00.134Z,100855.00
2018-06-03T20:38:29.574Z,100848.00
2018-06-03T20:40:58.973Z,100864.00
2018-06-03T20:43:28.405Z,100853.00
2018-06-03T20:45:57.877Z,100856.00
2018-06-03T20:48:27.200Z,100858.00
2018-06-03T20:50:56.675Z,100859.00
2018-06-03T20:53:26.329Z,100860.00
2018-06-03T20:55:55.678Z,100865.00
2018-06-03T20:58:25.207Z,100860.00
2018-06-03T21:00:54.898Z,100868.00
2018-06-03T21:03:24.308Z,100868.00
2018-06-03T21:05:53.736Z,100860.00
2018-06-03T21:08:23.035Z,100870.00
2018-06-03T21:10:52.301Z,100862.00
2018-06-03T21:13:21.875Z,100866.00
2018-06-03T21:15:51.319Z,100864.00
2018-06-03T21:18:20.671Z,100866.00
2018-06-03T21:20:49.866Z,100861.00
2018-06-03T21:23:19.197Z,100865.00
2018-06-03T21:25:48.576Z,100868.00
2018-06-03T21:28:18.219Z,100870.00
2018-06-03T21:30:47.648Z,100864.00
2018-06-03T21:33:17.303Z,100868.00
2018-06-03T21:35:46.745Z,100877.00
2018-06-03T21:38:16.086Z,100868.00
2018-06-03T21:40:45.529Z,100868.00
2018-06-03T21:43:15.113Z,100873.00
2018-06-03T21:45:45.190Z,100862.00
2018-06-03T21:48:14.725Z,100865.00
2018-06-03T21:50:44.225Z,100864.00
2018-06-03T21:53:13.658Z,100862.00
2018-06-03T21:55:43.262Z,100872.00
2018-06-03T21:58:12.793Z,100868.00
2018-06-03T22:00:42.278Z,100865.00
2018-06-03T22:03:11.871Z,100867.00
2018-06-03T22:05:41.216Z,100867.00
2018-06-03T22:08:10.437Z,100865.00
2018-06-03T22:10:39.679Z,100871.00
2018-06-03T22:13:09.181Z,100867.00
2018-06-03T22:15:38.382Z,100874.00
2018-06-03T22:18:07.709Z,100872.00
2018-06-03T22:20:36.876Z,100885.00
2018-06-03T22:23:06.170Z,100872.00
2018-06-03T22:25:35.443Z,100868.00
2018-06-03T22:28:04.655Z,100867.00
2018-06-03T22:30:34.015Z,100869.00
2018-06-03T22:33:03.320Z,100868.00
2018-06-03T22:35:32.907Z,100874.00
2018-06-03T22:38:02.237Z,100866.00
2018-06-03T22:40:31.473Z,100868.00
2018-06-03T22:43:00.765Z,100867.00
2018-06-03T22:45:30.088Z,100857.00
2018-06-03T22:47:59.453Z,100873.00
2018-06-03T22:50:28.754Z,100863.00
2018-06-03T22:52:57.910Z,100872.00
2018-06-03T22:55:27.205Z,100868.00
2018-06-03T22:57:56.509Z,100868.00
2018-06-03T23:00:30.405Z,100871.00
2018-06-03T23:03:04.911Z,100859.00
2018-06-03T23:05:34.357Z,100861.00
2018-06-03T23:08:03.680Z,100859.00
2018-06-03T23:10:32.852Z,100866.00
2018-06-03T23:13:02.012Z,100863.00
2018-06-03T23:15:31.479Z,100869.00
2018-06-03T23:18:00.720Z,100863.00
2018-06-03T23:20:30.037Z,100858.00
2018-06-03T23:22:59.430Z,100851.00
2018-06-03T23:25:28.617Z,100854.00
2018-06-03T23:27:57.981Z,100854.00
2018-06-03T23:30:27.139Z,100853.00
2018-06-03T23:32:56.321Z,100836.00
2018-06-03T23:35:25.575Z,100839.00
2018-06-03T23:37:54.886Z,100835.00
2018-06-03T23:40:24.359Z,100826.00
2018-06-03T23:42:53.504Z,100825.00
2018-06-03T23:45:22.684Z,100828.00
2018-06-03T23:47:51.994Z,100822.00
2018-06-03T23:50:21.154Z,100817.00
2018-06-03T23:52:50.508Z,100813.00
2018-06-03T23:55:19.764Z,100813.00
2018-06-03T23:57:49.380Z,100821.00
